Upper Musquodoboit, Canada
Current Conditions -  °F | °C
As of 9:00 AM on Sunday 23 Nov 2014 (Local Time) from CYHZ Reporting Station
Overcast Overcast  
Wind Chill: 32°   Ceiling: 2500
Heat Index: 39°   Visibility: 15mi
Dew Point: 36°   Wind: 13mph
Humidity: 87%   Direction: 250°WSW
Pressure: 29.96"   Gusts: NA
Location:  45.13°N, 62.95°W
Report Text: CYHZ 231300Z 25011KT 15SM OVC025 04/02 A2996 RMK SC8 SLP152
Loading
Personal Weather Stations






























Interactive Weather Map New forecast layout! Learn more

10-Day Weather Forecast

Advertisements
Track Severe Weather on mobile